Time;durP1;ratioP1;P1;durP2;ratioP2;P2;SDS_P1;SDS_P2;PMS_P1;PMS_P2;Temp;Humidity;BMP_temperature;BMP_pressure;BME280_temperature;BME280_humidity;BME280_pressure;Samples;Min_cycle;Max_cycle;Signal;HPM_P1;HPM_P2
2023/10/18 00:00:58;;;;;;;0.55;0.55;;;5.30;99.90;;;;;;5093659;28;20780;-63
2023/10/18 00:03:30;;;;;;;0.57;0.57;;;;;;;;;;5092073;28;20151;-61
2023/10/18 00:05:57;;;;;;;0.30;0.30;;;5.60;99.90;;;;;;5093396;28;20062;-61
2023/10/18 00:08:23;;;;;;;1.20;0.98;;;;;;;;;;5093002;28;20052;-61
2023/10/18 00:10:56;;;;;;;0.63;0.63;;;;;;;;;;5093411;28;20047;-63
2023/10/18 00:13:22;;;;;;;0.20;0.20;;;;;;;;;;5093369;28;20473;-61
2023/10/18 00:15:54;;;;;;;0.50;0.50;;;5.40;99.90;;;;;;5093383;28;20094;-61
2023/10/18 00:18:21;;;;;;;0.35;0.35;;;;;;;;;;5093141;28;20106;-62
2023/10/18 00:20:47;;;;;;;;;;;;;;;;;;5093396;28;20482;-62
2023/10/18 00:23:13;;;;;;;0.93;0.85;;;5.40;99.90;;;;;;5093479;28;19924;-62
2023/10/18 00:25:39;;;;;;;;;;;5.40;99.90;;;;;;5094047;28;20574;-62
2023/10/18 00:28:05;;;;;;;0.60;0.60;;;5.40;99.90;;;;;;5093526;28;19999;-62
2023/10/18 00:30:30;;;;;;;0.30;0.30;;;5.90;99.90;;;;;;5093418;28;20040;-61
2023/10/18 00:32:57;;;;;;;0.60;0.60;;;5.70;99.90;;;;;;5093279;28;20044;-64
2023/10/18 00:35:31;;;;;;;0.60;0.60;;;;;;;;;;5093180;28;20036;-62
2023/10/18 00:37:57;;;;;;;0.47;0.47;;;5.70;99.90;;;;;;5093538;28;20875;-61
2023/10/18 00:43:04;;;;;;;0.30;0.30;;;5.60;99.90;;;;;;5093198;28;20103;-61
2023/10/18 00:45:31;;;;;;;0.38;0.38;;;6.00;99.90;;;;;;5092886;28;20047;-62
2023/10/18 00:48:00;;;;;;;1.08;0.98;;;6.10;99.90;;;;;;5092956;28;20131;-61
2023/10/18 00:50:27;;;;;;;0.40;0.40;;;;;;;;;;5093143;28;20044;-61
2023/10/18 00:52:54;;;;;;;0.73;0.73;;;6.10;99.90;;;;;;5093299;28;20062;-63
2023/10/18 00:55:19;;;;;;;1.13;1.13;;;6.10;99.90;;;;;;5093261;28;20079;-65
2023/10/18 00:57:47;;;;;;;1.10;0.90;;;5.90;99.90;;;;;;5091923;28;20098;-62
2023/10/18 01:00:19;;;;;;;0.73;0.70;;;6.00;99.90;;;;;;5092743;28;20052;-62
2023/10/18 01:02:48;;;;;;;0.55;0.55;;;6.10;99.90;;;;;;5093030;28;20507;-63
2023/10/18 01:05:15;;;;;;;0.77;0.77;;;;;;;;;;5092495;28;20056;-63
2023/10/18 01:07:42;;;;;;;0.90;0.90;;;6.20;99.90;;;;;;5092720;28;20051;-62
2023/10/18 01:10:09;;;;;;;0.90;0.85;;;6.00;99.90;;;;;;5092677;28;20408;-61
2023/10/18 01:12:37;;;;;;;0.73;0.73;;;;;;;;;;5092556;28;20111;-62
2023/10/18 01:15:06;;;;;;;0.90;0.90;;;6.00;99.90;;;;;;5092446;28;20048;-61
2023/10/18 01:17:34;;;;;;;0.70;0.68;;;5.70;99.90;;;;;;5092601;28;20048;-62
2023/10/18 01:20:12;;;;;;;0.60;0.60;;;;;;;;;;5091708;28;20491;-63
2023/10/18 01:22:38;;;;;;;1.45;1.40;;;5.80;99.90;;;;;;5092455;28;20066;-61
2023/10/18 01:25:05;;;;;;;1.00;0.95;;;5.80;99.90;;;;;;5092241;28;20044;-63
2023/10/18 01:27:30;;;;;;;2.42;0.88;;;5.80;99.90;;;;;;5092257;28;20048;-62
2023/10/18 01:29:56;;;;;;;0.75;0.73;;;6.00;99.90;;;;;;5092429;28;20519;-64
2023/10/18 01:32:22;;;;;;;0.75;0.50;;;5.90;99.90;;;;;;5092338;28;20399;-62
2023/10/18 01:34:47;;;;;;;0.50;0.50;;;5.80;99.90;;;;;;5092163;28;20396;-62
2023/10/18 01:37:14;;;;;;;0.75;0.75;;;6.00;99.90;;;;;;5092213;28;20047;-62
2023/10/18 01:39:40;;;;;;;0.98;0.98;;;5.80;99.90;;;;;;5092079;28;20052;-63
2023/10/18 01:42:06;;;;;;;1.30;1.20;;;5.80;99.90;;;;;;5092046;28;20123;-62
2023/10/18 01:44:35;;;;;;;1.35;1.25;;;5.60;99.90;;;;;;5092196;28;20710;-62
2023/10/18 01:47:06;;;;;;;0.50;0.50;;;6.10;99.90;;;;;;5092340;28;20048;-62
2023/10/18 01:49:38;;;;;;;0.32;0.32;;;5.70;99.90;;;;;;5092386;28;20067;-63
2023/10/18 01:52:04;;;;;;;0.68;0.68;;;5.90;99.90;;;;;;5092405;28;20085;-62
2023/10/18 01:54:33;;;;;;;1.40;1.30;;;;;;;;;;5091758;28;20073;-62
2023/10/18 01:57:00;;;;;;;1.15;1.05;;;;;;;;;;5091930;28;20058;-62
2023/10/18 01:59:27;;;;;;;1.08;1.08;;;5.70;99.90;;;;;;5091879;28;20052;-62
2023/10/18 02:01:54;;;;;;;0.57;0.57;;;5.70;99.90;;;;;;5091789;28;20063;-63
2023/10/18 02:04:27;;;;;;;0.50;0.45;;;;;;;;;;5091644;28;20166;-62
2023/10/18 02:07:02;;;;;;;1.17;0.90;;;5.70;99.90;;;;;;5091672;28;20445;-62
2023/10/18 02:09:30;;;;;;;0.68;0.68;;;6.00;99.90;;;;;;5091782;28;20514;-61
2023/10/18 02:11:56;;;;;;;0.82;0.77;;;5.80;99.90;;;;;;5091758;28;20044;-62
2023/10/18 02:14:21;;;;;;;1.02;0.65;;;5.50;99.90;;;;;;5091688;28;20084;-62
2023/10/18 02:16:48;;;;;;;0.47;0.47;;;5.20;99.90;;;;;;5091567;28;20083;-62
2023/10/18 02:19:16;;;;;;;1.42;0.73;;;5.70;99.90;;;;;;5091400;28;20059;-62
2023/10/18 02:21:41;;;;;;;1.08;1.00;;;5.50;99.90;;;;;;5090172;28;20044;-62
2023/10/18 02:24:11;;;;;;;1.77;1.15;;;5.30;99.90;;;;;;5091592;28;20040;-61
2023/10/18 02:26:44;;;;;;;2.40;1.10;;;5.80;99.90;;;;;;5091559;28;20081;-61
2023/10/18 02:29:12;;;;;;;3.92;1.27;;;5.40;99.90;;;;;;5090403;28;20138;-61
2023/10/18 02:31:40;;;;;;;1.27;1.20;;;5.50;99.90;;;;;;5092192;28;20043;-61
2023/10/18 02:34:06;;;;;;;1.15;0.70;;;5.40;99.90;;;;;;5095500;28;20044;-63
2023/10/18 02:36:38;;;;;;;0.88;0.88;;;5.50;99.90;;;;;;5095836;28;20526;-62
2023/10/18 02:39:08;;;;;;;2.83;1.90;;;;;;;;;;5095699;28;20062;-62
2023/10/18 02:41:40;;;;;;;0.60;0.60;;;;;;;;;;5095601;28;20447;-62
2023/10/18 02:44:11;;;;;;;8.38;0.98;;;5.00;99.90;;;;;;5095517;28;20051;-63
2023/10/18 02:46:36;;;;;;;1.75;1.27;;;5.50;99.90;;;;;;5095355;28;20558;-62
2023/10/18 02:49:07;;;;;;;4.80;1.83;;;5.20;99.90;;;;;;5095435;28;20056;-63
2023/10/18 02:51:33;;;;;;;3.05;2.75;;;5.30;99.90;;;;;;5095792;28;20052;-62
2023/10/18 02:54:17;;;;;;;0.75;0.75;;;5.40;99.90;;;;;;5095403;28;20036;-62
2023/10/18 02:56:50;;;;;;;0.65;0.57;;;5.60;99.90;;;;;;5095226;28;20044;-62
2023/10/18 02:59:16;;;;;;;1.25;0.98;;;;;;;;;;5095412;28;20044;-61
2023/10/18 03:01:43;;;;;;;0.90;0.65;;;5.50;99.90;;;;;;5095215;28;20043;-62
2023/10/18 03:04:09;;;;;;;;;;;5.40;99.90;;;;;;5095501;28;20059;-62
2023/10/18 03:06:38;;;;;;;1.63;1.52;;;;;;;;;;5095227;28;19993;-62
2023/10/18 03:11:48;;;;;;;0.98;0.98;;;5.30;99.90;;;;;;5095135;28;20196;-61
2023/10/18 03:14:14;;;;;;;1.60;1.50;;;5.20;99.90;;;;;;5095012;28;20127;-61
2023/10/18 03:16:40;;;;;;;0.82;0.80;;;5.20;99.90;;;;;;5094828;28;20365;-62
2023/10/18 03:19:12;;;;;;;5.95;1.40;;;5.40;99.90;;;;;;5094752;28;20083;-62
2023/10/18 03:21:47;;;;;;;0.98;0.98;;;5.10;99.90;;;;;;5093670;28;20097;-62
2023/10/18 03:24:13;;;;;;;1.27;1.17;;;;;;;;;;5094568;28;20097;-61
2023/10/18 03:26:40;;;;;;;1.88;1.77;;;5.50;99.90;;;;;;5094795;28;20044;-62
2023/10/18 03:29:12;;;;;;;1.05;1.05;;;;;;;;;;5094648;28;20059;-63
2023/10/18 03:31:43;;;;;;;12.95;1.67;;;;;;;;;;5094695;28;20510;-62
2023/10/18 03:34:15;;;;;;;2.78;0.80;;;5.20;99.90;;;;;;5093544;28;20116;-62
2023/10/18 03:36:51;;;;;;;0.50;0.50;;;5.30;99.90;;;;;;5094453;28;20048;-62
2023/10/18 03:39:18;;;;;;;0.95;0.95;;;5.40;99.90;;;;;;5094722;28;20059;-62
2023/10/18 03:41:46;;;;;;;;;;;;;;;;;;5094956;28;20506;-63
2023/10/18 03:44:16;;;;;;;2.08;1.95;;;5.60;99.90;;;;;;5093385;28;19928;-64
2023/10/18 03:46:55;;;;;;;2.65;1.30;;;;;;;;;;5094310;28;20453;-63
2023/10/18 03:49:44;;;;;;;1.13;0.68;;;5.60;99.90;;;;;;5094197;28;20144;-61
2023/10/18 03:57:41;;;;;;;1.05;1.05;;;5.50;99.90;;;;;;5085074;28;20511;-61
2023/10/18 04:02:52;;;;;;;0.82;0.82;;;5.40;99.90;;;;;;5094044;28;20048;-62
2023/10/18 04:08:04;;;;;;;0.50;0.50;;;5.70;99.90;;;;;;5093838;28;20141;-62
2023/10/18 04:10:35;;;;;;;0.70;0.70;;;;;;;;;;5093979;28;20055;-62
2023/10/18 04:13:02;;;;;;;1.77;1.50;;;;;;;;;;5093833;28;20074;-61
2023/10/18 04:15:34;;;;;;;0.95;0.95;;;;;;;;;;5093747;28;20040;-61
2023/10/18 04:20:35;;;;;;;2.25;1.85;;;5.10;99.90;;;;;;5093509;28;20098;-62
2023/10/18 04:25:57;;;;;;;1.25;1.17;;;5.40;99.90;;;;;;5093537;28;20044;-63
2023/10/18 04:28:23;;;;;;;2.10;1.10;;;5.20;99.90;;;;;;5093574;28;20087;-62
2023/10/18 04:30:52;;;;;;;0.65;0.65;;;5.40;99.90;;;;;;5093346;28;20101;-61
2023/10/18 04:33:24;;;;;;;1.85;1.73;;;;;;;;;;5093483;28;20044;-62
2023/10/18 04:35:52;;;;;;;1.52;1.00;;;5.20;99.90;;;;;;5093526;28;20169;-61
2023/10/18 04:38:30;;;;;;;1.70;1.52;;;5.10;99.90;;;;;;5092382;28;20052;-62
2023/10/18 04:43:27;;;;;;;1.60;1.50;;;5.30;99.90;;;;;;5093101;28;20047;-62
2023/10/18 04:45:54;;;;;;;2.08;1.65;;;5.20;99.90;;;;;;5093589;28;20119;-62
2023/10/18 04:48:43;;;;;;;1.60;1.50;;;;;;;;;;5093560;28;20051;-61
2023/10/18 04:51:06;;;;;;;1.38;0.95;;;;;;;;;;5091796;28;20416;-61
2023/10/18 04:53:33;;;;;;;1.05;1.05;;;5.00;99.90;;;;;;5092020;28;20163;-61
2023/10/18 04:56:01;;;;;;;0.50;0.50;;;;;;;;;;5092536;28;20052;-62
2023/10/18 04:58:29;;;;;;;1.45;1.35;;;;;;;;;;5092906;28;20059;-61
2023/10/18 05:01:01;;;;;;;2.88;1.83;;;5.10;99.90;;;;;;5092929;28;20048;-62
2023/10/18 05:03:33;;;;;;;1.50;1.40;;;5.20;99.90;;;;;;5092941;28;20048;-61
2023/10/18 05:06:00;;;;;;;3.65;1.85;;;;;;;;;;5092845;28;20063;-62
2023/10/18 05:08:30;;;;;;;5.72;1.92;;;5.20;99.90;;;;;;5092698;28;20051;-61
2023/10/18 05:11:22;;;;;;;2.78;2.03;;;;;;;;;;5092727;28;20064;-61
2023/10/18 05:13:42;;;;;;;1.50;1.40;;;5.00;99.90;;;;;;5092551;28;20052;-61
2023/10/18 05:16:11;;;;;;;2.20;1.70;;;5.60;99.90;;;;;;5091550;28;20407;-63
2023/10/18 05:18:37;;;;;;;0.82;0.82;;;;;;;;;;5092468;28;20051;-62
2023/10/18 05:21:08;;;;;;;2.38;1.20;;;;;;;;;;5092390;28;20112;-63
2023/10/18 05:23:34;;;;;;;1.48;1.40;;;5.30;99.90;;;;;;5092455;28;20048;-62
2023/10/18 05:31:43;;;;;;;2.75;1.55;;;;;;;;;;5092185;28;20055;-62
2023/10/18 05:34:47;;;;;;;1.15;1.15;;;;;;;;;;5091977;28;20055;-62
2023/10/18 05:39:49;;;;;;;1.48;1.38;;;5.10;99.90;;;;;;5092040;28;20548;-61
2023/10/18 05:42:20;;;;;;;9.07;1.25;;;;;;;;;;5091955;28;20043;-61
2023/10/18 05:44:47;;;;;;;1.00;1.00;;;;;;;;;;5091977;28;20492;-62
2023/10/18 05:47:13;;;;;;;1.55;1.45;;;5.10;99.90;;;;;;5092019;28;20055;-62
2023/10/18 05:49:42;;;;;;;5.15;2.22;;;;;;;;;;5091924;28;20109;-62
2023/10/18 05:54:37;;;;;;;2.25;1.90;;;5.20;99.90;;;;;;5092036;28;20055;-61
2023/10/18 05:57:05;;;;;;;1.45;1.35;;;5.10;99.90;;;;;;5092191;28;20483;-61
2023/10/18 06:04:42;;;;;;;3.88;3.05;;;;;;;;;;5091601;28;20071;-62
2023/10/18 06:07:10;;;;;;;1.35;1.27;;;;;;;;;;5091209;28;20087;-62
2023/10/18 06:09:58;;;;;;;3.28;1.85;;;;;;;;;;5091774;28;20052;-62
2023/10/18 06:12:27;;;;;;;1.73;1.60;;;;;;;;;;5091774;28;20079;-62
2023/10/18 06:14:53;;;;;;;3.55;1.40;;;;;;;;;;5091534;28;20055;-62
2023/10/18 06:17:22;;;;;;;3.38;1.75;;;5.20;99.90;;;;;;5091419;28;20040;-62
2023/10/18 06:19:52;;;;;;;1.58;1.48;;;;;;;;;;5091630;28;20052;-61
2023/10/18 06:22:28;;;;;;;1.25;1.15;;;5.30;99.90;;;;;;5091490;28;20048;-61
2023/10/18 06:24:57;;;;;;;0.55;0.55;;;;;;;;;;5091383;28;20177;-62
2023/10/18 06:27:23;;;;;;;1.65;1.55;;;;;;;;;;5091299;28;20127;-63
2023/10/18 06:29:53;;;;;;;;;;;5.30;99.90;;;;;;5091578;28;20123;-62
2023/10/18 06:32:22;;;;;;;3.75;1.73;;;;;;;;;;5091367;28;20015;-62
2023/10/18 06:34:55;;;;;;;1.50;1.40;;;;;;;;;;5091484;28;20055;-61
2023/10/18 06:40:20;;;;;;;2.65;1.98;;;;;;;;;;5089001;28;20059;-63
2023/10/18 06:42:46;;;;;;;1.65;1.55;;;;;;;;;;5091578;28;20083;-61
2023/10/18 06:45:15;;;;;;;3.75;1.88;;;;;;;;;;5090430;28;20048;-61
2023/10/18 06:47:44;;;;;;;3.03;1.98;;;5.60;99.90;;;;;;5087683;28;20052;-61
2023/10/18 06:50:11;;;;;;;2.22;2.03;;;;;;;;;;5089992;28;20052;-63
2023/10/18 06:52:44;;;;;;;2.30;1.50;;;;;;;;;;5089724;28;20173;-61
2023/10/18 06:55:17;;;;;;;3.00;1.60;;;;;;;;;;5090805;28;20385;-62
2023/10/18 06:57:42;;;;;;;2.00;1.60;;;5.90;99.90;;;;;;5090716;28;20044;-61
2023/10/18 07:00:12;;;;;;;1.55;1.45;;;;;;;;;;5090147;28;20048;-62
2023/10/18 07:02:38;;;;;;;1.15;1.02;;;5.80;99.90;;;;;;5090544;28;20052;-61
2023/10/18 07:05:04;;;;;;;1.48;1.38;;;;;;;;;;5090441;28;20060;-63
2023/10/18 07:07:31;;;;;;;2.20;2.10;;;;;;;;;;5089869;28;20056;-63
2023/10/18 07:09:57;;;;;;;3.50;1.52;;;6.20;99.90;;;;;;5088968;28;20194;-62
2023/10/18 07:12:26;;;;;;;1.95;1.48;;;5.80;99.90;;;;;;5097531;28;20047;-62
2023/10/18 07:14:53;;;;;;;2.05;1.95;;;;;;;;;;5086350;28;20182;-62
2023/10/18 07:17:23;;;;;;;3.35;1.88;;;5.80;99.90;;;;;;5089989;28;20419;-63
2023/10/18 07:19:49;;;;;;;0.63;0.63;;;5.70;99.90;;;;;;5094400;28;20060;-63
2023/10/18 07:22:18;;;;;;;2.67;2.47;;;6.10;99.90;;;;;;5094249;28;20055;-62
2023/10/18 07:24:47;;;;;;;1.52;1.42;;;6.10;99.90;;;;;;5094372;28;20127;-62
2023/10/18 07:27:16;;;;;;;4.07;1.45;;;6.20;99.90;;;;;;5094321;28;20047;-62
2023/10/18 07:29:49;;;;;;;2.03;1.90;;;6.40;99.90;;;;;;5093565;28;20055;-62
2023/10/18 07:32:23;;;;;;;1.63;1.27;;;6.20;99.90;;;;;;5094227;28;20059;-63
2023/10/18 07:34:54;;;;;;;2.28;2.08;;;6.10;99.90;;;;;;5094548;28;20051;-63
2023/10/18 07:37:32;;;;;;;1.70;1.60;;;6.20;99.90;;;;;;5093772;28;20063;-63
2023/10/18 07:39:59;;;;;;;3.08;1.55;;;6.60;99.90;;;;;;5094249;28;20048;-62
2023/10/18 07:42:34;;;;;;;2.13;1.67;;;6.40;99.90;;;;;;5085874;28;20109;-63
2023/10/18 07:45:14;;;;;;;2.03;1.92;;;;;;;;;;5092386;28;20556;-61
2023/10/18 07:47:40;;;;;;;1.83;1.23;;;6.50;99.90;;;;;;5093925;28;20408;-62
2023/10/18 07:52:55;;;;;;;4.35;2.22;;;6.60;99.90;;;;;;5093885;28;20099;-63
2023/10/18 07:55:22;;;;;;;3.20;2.05;;;;;;;;;;5093514;28;20468;-62
2023/10/18 07:57:51;;;;;;;2.00;1.80;;;6.90;99.90;;;;;;5093518;28;20055;-61
2023/10/18 08:00:23;;;;;;;8.25;1.98;;;6.70;99.90;;;;;;5093697;28;20082;-61
2023/10/18 08:02:49;;;;;;;2.15;1.83;;;7.30;99.90;;;;;;5093756;28;20048;-61
2023/10/18 08:05:21;;;;;;;1.83;1.73;;;7.30;99.90;;;;;;5092161;28;20439;-61
2023/10/18 08:07:51;;;;;;;1.42;1.38;;;7.10;99.90;;;;;;5093338;28;20261;-62
2023/10/18 08:10:19;;;;;;;4.10;1.85;;;7.30;99.90;;;;;;5093642;28;20087;-62
2023/10/18 08:13:07;;;;;;;1.52;1.42;;;;;;;;;;5093139;28;20416;-61
2023/10/18 08:15:37;;;;;;;3.28;1.58;;;;;;;;;;5089497;28;20044;-68
2023/10/18 08:18:14;;;;;;;1.52;1.42;;;7.30;99.90;;;;;;5073041;28;20048;-61
2023/10/18 08:23:34;;;;;;;1.50;1.38;;;7.60;99.90;;;;;;5093427;28;20112;-62
2023/10/18 08:26:06;;;;;;;2.58;2.15;;;;;;;;;;5103652;28;20463;-64
2023/10/18 08:28:38;;;;;;;2.42;2.08;;;;;;;;;;5092993;28;20139;-62
2023/10/18 08:31:34;;;;;;;1.15;1.13;;;7.90;99.90;;;;;;5088082;28;20123;-62
2023/10/18 08:34:10;;;;;;;2.85;1.67;;;;;;;;;;5093090;28;20483;-62
2023/10/18 08:36:35;;;;;;;1.52;1.30;;;8.00;99.90;;;;;;5093077;28;20052;-63
2023/10/18 08:39:02;;;;;;;2.28;1.90;;;7.90;99.90;;;;;;5093123;28;20412;-62
2023/10/18 08:41:37;;;;;;;1.50;1.45;;;7.90;99.90;;;;;;5093136;28;20185;-62
2023/10/18 08:44:18;;;;;;;2.22;1.70;;;8.10;99.90;;;;;;5092084;28;20044;-62
2023/10/18 08:49:44;;;;;;;1.45;1.35;;;8.00;99.90;;;;;;5092660;28;20133;-62
2023/10/18 08:52:10;;;;;;;1.73;1.55;;;8.00;99.90;;;;;;5092376;28;20048;-62
2023/10/18 08:54:41;;;;;;;2.03;1.80;;;8.00;99.90;;;;;;5093072;28;20054;-63
2023/10/18 08:57:11;;;;;;;1.88;1.40;;;8.40;99.90;;;;;;5089735;28;20048;-63
2023/10/18 08:59:46;;;;;;;1.80;1.67;;;8.40;99.90;;;;;;5090772;28;20477;-63
2023/10/18 09:02:21;;;;;;;4.93;1.60;;;;;;;;;;5090859;28;20157;-63
2023/10/18 09:04:52;;;;;;;3.85;1.67;;;8.30;99.90;;;;;;5091864;28;20103;-64
2023/10/18 09:07:22;;;;;;;1.90;1.17;;;8.50;99.90;;;;;;5092725;28;20048;-61
2023/10/18 09:09:58;;;;;;;2.22;1.60;;;;;;;;;;5091656;28;20059;-62
2023/10/18 09:15:25;;;;;;;1.35;1.25;;;8.50;99.90;;;;;;5092794;28;20048;-62
2023/10/18 09:17:46;;;;;;;3.15;1.50;;;8.40;99.90;;;;;;5092414;28;20500;-62
2023/10/18 09:20:15;;;;;;;1.95;1.65;;;8.60;99.90;;;;;;5091338;28;20127;-62
2023/10/18 09:22:47;;;;;;;1.27;1.20;;;8.80;99.90;;;;;;5092524;28;20423;-65
2023/10/18 09:25:13;;;;;;;3.50;1.50;;;9.30;99.90;;;;;;5092174;28;20055;-63
2023/10/18 09:27:39;;;;;;;1.65;1.30;;;8.70;99.90;;;;;;5107717;28;20047;-63
2023/10/18 09:30:10;;;;;;;1.80;1.70;;;8.70;99.90;;;;;;5091995;28;20506;-62
2023/10/18 09:32:36;;;;;;;1.58;1.48;;;8.80;99.90;;;;;;5091539;28;20085;-62
2023/10/18 09:35:09;;;;;;;4.10;2.40;;;9.10;99.90;;;;;;5091718;28;20127;-61
2023/10/18 09:37:38;;;;;;;2.63;2.28;;;9.00;99.90;;;;;;5091385;28;20483;-62
2023/10/18 09:40:05;;;;;;;1.58;1.48;;;9.00;99.90;;;;;;5091819;28;20059;-62
2023/10/18 09:42:31;;;;;;;2.05;1.73;;;9.10;99.90;;;;;;5089932;28;20090;-61
2023/10/18 09:44:57;;;;;;;1.23;1.13;;;9.20;99.90;;;;;;5091914;28;20072;-62
2023/10/18 09:47:25;;;;;;;2.35;2.15;;;9.30;99.90;;;;;;5091689;28;20044;-61
2023/10/18 09:49:55;;;;;;;0.93;0.93;;;9.10;99.90;;;;;;5091689;28;20054;-62
2023/10/18 09:52:24;;;;;;;2.30;2.00;;;9.30;99.90;;;;;;5091537;28;20044;-61
2023/10/18 09:54:50;;;;;;;3.10;1.13;;;9.10;99.90;;;;;;5091160;28;20059;-63
2023/10/18 09:57:24;;;;;;;1.55;1.45;;;9.40;99.90;;;;;;5090488;28;20085;-62
2023/10/18 09:59:56;;;;;;;1.65;1.52;;;9.00;99.90;;;;;;5081668;28;20067;-63
2023/10/18 10:02:24;;;;;;;1.35;1.25;;;9.40;99.90;;;;;;5070870;28;20072;-61
2023/10/18 10:04:54;;;;;;;2.13;1.20;;;9.10;99.90;;;;;;5070985;28;20089;-62
2023/10/18 10:07:37;;;;;;;4.07;1.88;;;9.20;99.90;;;;;;5071146;28;20052;-62
2023/10/18 10:10:17;;;;;;;2.90;1.70;;;9.70;99.90;;;;;;5070756;28;20052;-61
2023/10/18 10:12:45;;;;;;;1.52;0.95;;;9.80;99.90;;;;;;5070285;28;20096;-61
2023/10/18 10:15:13;;;;;;;3.17;1.17;;;9.50;99.90;;;;;;5087601;28;20036;-63
2023/10/18 10:17:42;;;;;;;1.77;1.67;;;9.70;99.90;;;;;;5091202;28;20503;-61
2023/10/18 10:20:14;;;;;;;1.42;0.98;;;9.80;99.90;;;;;;5090899;28;20493;-61
2023/10/18 10:22:42;;;;;;;1.42;1.02;;;10.10;99.90;;;;;;5091170;28;20381;-61
2023/10/18 10:25:15;;;;;;;1.25;1.15;;;10.00;99.90;;;;;;5090846;28;20380;-61
2023/10/18 10:27:41;;;;;;;1.83;1.58;;;9.80;99.90;;;;;;5091354;28;20055;-61
2023/10/18 10:32:52;;;;;;;0.98;0.68;;;9.70;99.90;;;;;;5091334;28;20058;-61
2023/10/18 10:35:28;;;;;;;1.48;1.38;;;9.90;99.90;;;;;;5091015;28;20044;-61
2023/10/18 10:38:09;;;;;;;1.35;1.27;;;9.90;99.90;;;;;;5091003;28;20040;-61
2023/10/18 10:40:45;;;;;;;1.45;1.35;;;10.00;99.90;;;;;;5091225;28;20102;-60
2023/10/18 10:43:12;;;;;;;0.82;0.82;;;10.20;99.90;;;;;;5090763;28;20044;-61
2023/10/18 10:45:38;;;;;;;1.10;1.00;;;9.90;99.90;;;;;;5090787;28;20094;-62
2023/10/18 10:48:16;;;;;;;2.40;1.77;;;10.00;99.90;;;;;;5090885;28;20084;-62
2023/10/18 10:50:50;;;;;;;1.27;1.17;;;10.30;99.90;;;;;;5090820;28;20082;-61
2023/10/18 10:53:50;;;;;;;1.15;1.00;;;10.40;99.90;;;;;;5092968;28;20048;-61
2023/10/18 10:56:36;;;;;;;3.28;1.30;;;10.70;99.90;;;;;;5094875;28;20048;-61
2023/10/18 11:01:39;;;;;;;1.33;1.23;;;10.50;99.90;;;;;;5093496;28;20575;-63
2023/10/18 11:04:46;;;;;;;1.42;1.38;;;10.60;99.90;;;;;;5094447;28;20059;-62
2023/10/18 11:07:21;;;;;;;0.90;0.82;;;10.60;99.90;;;;;;5094371;28;20381;-63
2023/10/18 11:09:48;;;;;;;1.58;1.25;;;10.70;99.90;;;;;;5094702;28;20102;-63
2023/10/18 11:12:14;;;;;;;4.13;1.67;;;10.60;99.90;;;;;;5094424;28;20079;-61
2023/10/18 11:14:43;;;;;;;1.95;0.98;;;10.90;99.90;;;;;;5094067;28;20543;-62
2023/10/18 11:19:58;;;;;;;5.05;1.13;;;10.70;99.90;;;;;;5094332;28;20056;-63
2023/10/18 11:22:29;;;;;;;2.03;1.92;;;11.20;99.90;;;;;;5094247;28;20661;-61
2023/10/18 11:24:56;;;;;;;5.05;3.00;;;10.70;99.90;;;;;;5094207;28;20055;-62
2023/10/18 11:27:34;;;;;;;1.10;1.08;;;10.80;99.90;;;;;;5094465;28;20051;-61
2023/10/18 11:30:16;;;;;;;1.25;1.15;;;10.80;99.90;;;;;;5094162;28;20048;-61
2023/10/18 11:32:48;;;;;;;1.08;0.98;;;10.80;99.90;;;;;;5094085;28;20491;-61
2023/10/18 11:35:42;;;;;;;1.45;1.35;;;11.20;99.90;;;;;;5094151;28;20124;-60
2023/10/18 11:38:13;;;;;;;0.80;0.80;;;10.70;99.90;;;;;;5094017;28;20056;-62
2023/10/18 11:40:43;;;;;;;1.65;1.08;;;11.10;99.90;;;;;;5093754;28;20576;-62
2023/10/18 11:43:10;;;;;;;3.05;1.13;;;11.20;99.90;;;;;;5094088;28;20052;-62
2023/10/18 11:45:36;;;;;;;;;;;10.70;99.90;;;;;;5094256;28;20071;-61
2023/10/18 11:48:06;;;;;;;0.93;0.93;;;10.90;99.90;;;;;;5093690;28;20413;-61
2023/10/18 11:50:58;;;;;;;3.60;1.45;;;11.20;99.90;;;;;;5093721;28;20078;-61
2023/10/18 11:53:26;;;;;;;1.52;1.20;;;11.30;99.90;;;;;;5092925;28;20056;-61
2023/10/18 11:56:01;;;;;;;3.15;1.17;;;11.10;99.90;;;;;;5093667;28;20055;-61
2023/10/18 11:58:29;;;;;;;1.55;1.13;;;11.40;99.90;;;;;;5090868;28;20097;-62
2023/10/18 12:01:00;;;;;;;2.95;1.48;;;11.10;99.90;;;;;;5093017;28;20487;-63
2023/10/18 12:03:27;;;;;;;0.85;0.82;;;11.10;99.90;;;;;;5093387;28;20043;-62
2023/10/18 12:06:00;;;;;;;1.30;1.00;;;10.90;99.90;;;;;;5092386;28;20052;-62
2023/10/18 12:08:33;;;;;;;0.75;0.75;;;11.50;99.90;;;;;;5093526;28;20056;-63
2023/10/18 12:11:08;;;;;;;0.40;0.40;;;11.10;99.90;;;;;;5093501;28;20117;-61
2023/10/18 12:13:34;;;;;;;1.55;1.40;;;10.90;99.90;;;;;;5093486;28;20059;-61
2023/10/18 12:16:00;;;;;;;1.17;0.80;;;11.00;99.90;;;;;;5093230;28;20044;-62
2023/10/18 12:18:32;;;;;;;0.95;0.95;;;11.10;99.90;;;;;;5093198;28;20048;-61
2023/10/18 12:20:57;;;;;;;2.70;1.27;;;10.90;99.90;;;;;;5093414;28;20044;-62
2023/10/18 12:23:25;;;;;;;2.03;1.65;;;11.30;99.90;;;;;;5093512;28;20047;-62
2023/10/18 12:25:50;;;;;;;1.20;1.00;;;11.00;99.90;;;;;;5093135;28;20047;-61
2023/10/18 12:28:27;;;;;;;0.85;0.85;;;11.10;99.90;;;;;;5093115;28;20052;-61
2023/10/18 12:30:55;;;;;;;;;;;11.40;99.90;;;;;;5093479;28;20075;-63
2023/10/18 12:33:27;;;;;;;;;;;11.40;99.90;;;;;;5093484;28;20364;-61
2023/10/18 12:35:56;;;;;;;;;;;11.20;99.90;;;;;;5093259;28;19924;-63
2023/10/18 12:38:43;;;;;;;;;;;11.40;99.90;;;;;;5093510;28;19973;-61
2023/10/18 12:41:18;;;;;;;;;;;11.30;99.90;;;;;;5093446;28;19971;-63
2023/10/18 12:43:47;;;;;;;;;;;11.50;99.90;;;;;;5093192;28;19931;-61
2023/10/18 12:46:16;;;;;;;;;;;11.60;99.90;;;;;;5093254;28;19973;-61
2023/10/18 12:48:42;;;;;;;;;;;11.40;99.90;;;;;;5092113;28;19920;-61
2023/10/18 12:51:12;;;;;;;;;;;11.50;99.90;;;;;;5093310;28;19923;-63
2023/10/18 12:53:41;;;;;;;;;;;11.90;99.90;;;;;;5093172;28;19920;-61
2023/10/18 12:59:22;;;;;;;;;;;11.90;99.90;;;;;;5092958;28;19924;-62
2023/10/18 13:04:06;;;;;;;;;;;11.60;99.90;;;;;;5092521;28;19920;-61
2023/10/18 13:06:35;;;;;;;;;;;11.70;99.90;;;;;;5092633;28;20383;-61
2023/10/18 13:14:14;;;;;;;;;;;11.50;99.90;;;;;;5092443;28;19920;-61
2023/10/18 13:16:43;;;;;;;;;;;11.30;99.90;;;;;;5093084;28;20020;-62
2023/10/18 13:19:10;;;;;;;;;;;11.60;99.90;;;;;;5093103;28;20306;-63
2023/10/18 13:21:39;;;;;;;;;;;11.40;99.90;;;;;;5093065;28;19934;-61
2023/10/18 13:24:51;;;;;;;;;;;11.40;99.90;;;;;;5092828;28;19971;-61
2023/10/18 13:26:53;;;;;;;;;;;11.50;99.90;;;;;;5088695;28;19931;-62
2023/10/18 13:31:44;;;;;;;;;;;11.90;99.90;;;;;;5092890;28;20382;-62
2023/10/18 13:34:18;;;;;;;;;;;11.40;99.90;;;;;;5092792;28;19927;-61
2023/10/18 13:36:50;;;;;;;;;;;11.20;99.90;;;;;;5092771;28;19974;-61
2023/10/18 13:39:19;;;;;;;;;;;11.20;99.90;;;;;;5092543;28;20015;-60
2023/10/18 13:41:49;;;;;;;;;;;11.60;99.90;;;;;;5092715;28;19924;-62
2023/10/18 13:44:19;;;;;;;;;;;11.00;99.90;;;;;;5092600;28;19942;-61
2023/10/18 13:47:03;;;;;;;;;;;11.10;99.90;;;;;;5092591;28;19923;-61
2023/10/18 13:49:28;;;;;;;;;;;11.40;99.90;;;;;;5092522;28;20646;-63
2023/10/18 13:51:54;;;;;;;;;;;11.20;99.90;;;;;;5092395;28;19924;-61
2023/10/18 13:54:22;;;;;;;;;;;10.80;99.90;;;;;;5091518;28;20288;-62
2023/10/18 13:56:49;;;;;;;;;;;11.10;99.90;;;;;;5092468;28;19924;-61
2023/10/18 13:59:15;;;;;;;;;;;11.10;99.90;;;;;;5092401;28;19924;-61
2023/10/18 14:01:41;;;;;;;;;;;11.50;99.90;;;;;;5092264;28;20493;-61
2023/10/18 14:04:08;;;;;;;;;;;10.90;99.90;;;;;;5091929;28;21517;-61
2023/10/18 14:06:37;;;;;;;;;;;11.30;99.90;;;;;;5092186;28;20466;-62
2023/10/18 14:09:10;;;;;;;;;;;11.10;99.90;;;;;;5092379;28;20354;-61
2023/10/18 14:11:36;;;;;;;;;;;10.80;99.90;;;;;;5092306;28;19977;-63
2023/10/18 14:14:03;;;;;;;;;;;11.10;99.90;;;;;;5092064;28;19920;-61
2023/10/18 14:16:28;;;;;;;;;;;11.20;99.90;;;;;;5092206;28;19920;-61
2023/10/18 14:18:54;;;;;;;;;;;11.30;99.90;;;;;;5092176;28;19928;-61
2023/10/18 14:21:19;;;;;;;;;;;10.90;99.90;;;;;;5091957;28;19924;-62
2023/10/18 14:23:47;;;;;;;;;;;11.40;99.90;;;;;;5091797;28;20011;-62
2023/10/18 14:26:14;;;;;;;;;;;11.00;99.90;;;;;;5092011;28;19920;-61
2023/10/18 14:28:43;;;;;;;;;;;11.10;99.90;;;;;;5091421;28;19924;-62
2023/10/18 14:31:12;;;;;;;;;;;10.90;99.90;;;;;;5091428;28;20017;-61
2023/10/18 14:33:44;;;;;;;;;;;11.00;99.90;;;;;;5081714;28;19973;-63
2023/10/18 14:36:11;;;;;;;;;;;10.60;99.90;;;;;;5091653;28;19923;-63
2023/10/18 14:38:38;;;;;;;;;;;10.70;99.90;;;;;;5084187;28;20038;-61
2023/10/18 14:41:08;;;;;;;;;;;10.70;99.90;;;;;;5089198;28;20443;-62
2023/10/18 14:43:34;;;;;;;;;;;10.30;99.90;;;;;;5088785;28;19924;-62
2023/10/18 14:46:01;;;;;;;;;;;10.90;99.90;;;;;;5090008;28;20402;-62
2023/10/18 14:48:27;;;;;;;;;;;10.80;99.90;;;;;;5090448;28;19924;-61
2023/10/18 14:50:52;;;;;;;;;;;10.80;99.90;;;;;;5091185;28;19927;-61
2023/10/18 14:53:18;;;;;;;;;;;10.80;99.90;;;;;;5087260;28;19956;-60
2023/10/18 14:55:44;;;;;;;;;;;10.90;99.90;;;;;;5091526;28;19920;-61
2023/10/18 14:58:09;;;;;;;;;;;10.30;99.90;;;;;;5088406;28;19923;-62
2023/10/18 15:00:35;;;;;;;;;;;10.40;99.90;;;;;;5088990;28;19924;-61